Share

Martin, ND (58758)

6:30 PM CDT on April 24, 2014 (GMT -0500)
Harvey (K5H4) Elev 1608 ft | 47.79 °N, 99.93 °W | Change Station

Current weather conditions updated 15 minutes ago

Light Rain
Light Rain
46 °F
Feels Like 44 °F
N
6
Wind Variable Wind from NNE
Gusts 17 mph
Sunrise 6:34 AM
Sunset 8:43 PM
Moon Waning Crescent

Tomorrow is forecast to be Warmer than today.

Pressure 29.69 in
Visibility 9.0 miles
Clouds Few 3100 ft
Few 3900 ft
Mostly Cloudy 4600 ft
Windchill 44 °F
Dew Point 37 °F
Humidity 71%
Rainfall 0.00 in
Snow Depth Not available.
UV 1 out of 16
Pollen 9.10 out of 12
Air Quality Not available.
Flu Activity Sporadic
METAR K5H4 242315Z AUTO 02005G15KT 9SM VCTS -RA FEW031 FEW039 BKN046 08/03 A2969 RMK AO2 LTG DSNT NE AND SE

More Conditions Fewer Conditions

Pressure 29.69 in
Visibility 9.0 miles
Clouds Few 3100 ft
Few 3900 ft
Mostly Cloudy 4600 ft
Windchill 44 °F
Dew Point 37 °F
Humidity 71%
Rainfall 0.00 in
Snow Depth Not available.
UV 1 out of 16
Pollen 9.10 out of 12
Air Quality Not available.
Flu Activity Sporadic
METAR K5H4 242315Z AUTO 02005G15KT 9SM VCTS -RA FEW031 FEW039 BKN046 08/03 A2969 RMK AO2 LTG DSNT NE AND SE

More Conditions Fewer Conditions

10-Day Weather Forecast

Almanac

Astronomy

Apr. 24, 2014 Rise Set
Actual Time 6:34 AM CDT 8:43 PM CDT
Civil Twilight 6:01 AM CDT 9:16 PM CDT
Nautical Twilight 5:19 AM CDT 9:58 PM CDT
Astronomical Twilight 4:33 AM CDT 10:45 PM CDT
Moon 4:09 AM CDT 3:40 PM CDT
Length of Visible Light 15h 15m
Length of Day
14h 08m
Tomorrow will be 3m 10s longer.
Waning Crescent, 21% of the Moon is Illuminated
Today
Waning Crescent
Apr 29
New
May 6
First Quarter
May 14
Full
May 21
Last Quarter

Today's Extremes

State Highs State Lows

Community

  • Jone Runs Falls
    Jone Runs Falls
  • Easter in Shenandoah National Park
    Easter in Shenandoah National Park
  • Sunset at Apalachicola Bay, Florida
    Sunset at Apalachicola Bay, Florida
  • Clouds mov'n in
    Clouds mov'n in
  • Stacked
    Stacked

WunderPhotos

Upload Photos

1,704,742 photos uploaded!

Nearby

Snow Depth

Station Depth Elevation
No new snow has been reported.

Coastal Water Temperatures

Place Temperature
No Stations Reporting

Earthquake Activity

City Distance Mag. Time & Date
No recent earthquake activity has been reported nearby.
Minimum magnitude displayed is 2.5.

Nearby Weather Stations

Station Location Temp. Dew Point Humidity Wind Precip. Elev Updated Type
NDDOT Denhoff ND 14 MP 145.6, Goodrich, ND 51 °F 24 °F 35% NW  at  28 mph 0.00 in / hr 2056 ft 5:40 PM CDT MADIS

Show More Stations Show Fewer Stations

What do you think?

We're not finished. Please let us know what you like, what you don't like, and what you are still missing.